createdAt,value
2023-04-16T00:00:11.810Z,0
2023-04-16T00:01:28.110Z,0
2023-04-16T00:02:44.417Z,0
2023-04-16T00:04:00.691Z,0
2023-04-16T00:05:16.996Z,0
2023-04-16T00:06:33.289Z,0
2023-04-16T00:07:49.583Z,0
2023-04-16T00:09:05.886Z,0
2023-04-16T00:10:22.175Z,0
2023-04-16T00:11:38.456Z,0
2023-04-16T00:12:54.755Z,0
2023-04-16T00:14:11.052Z,0
2023-04-16T00:15:26.370Z,0
2023-04-16T00:16:42.648Z,0
2023-04-16T00:17:58.956Z,0
2023-04-16T00:19:15.236Z,0
2023-04-16T00:20:31.535Z,0
2023-04-16T00:21:47.836Z,0
2023-04-16T00:23:04.130Z,0
2023-04-16T00:24:20.421Z,0
2023-04-16T00:25:36.724Z,0
2023-04-16T00:26:53.003Z,0
2023-04-16T00:28:09.305Z,0
2023-04-16T00:29:25.599Z,0
2023-04-16T00:31:58.194Z,0
2023-04-16T00:33:13.501Z,0
2023-04-16T00:34:29.797Z,0
2023-04-16T00:35:46.087Z,0
2023-04-16T00:37:02.371Z,0
2023-04-16T00:38:18.662Z,0
2023-04-16T00:39:34.960Z,0
2023-04-16T00:40:51.267Z,0
2023-04-16T00:42:07.551Z,0
2023-04-16T00:43:23.846Z,0
2023-04-16T00:44:40.138Z,0
2023-04-16T00:45:56.428Z,0
2023-04-16T00:47:12.729Z,0
2023-04-16T00:48:29.031Z,0
2023-04-16T00:49:44.328Z,0
2023-04-16T00:51:00.633Z,0
2023-04-16T00:52:16.925Z,0
2023-04-16T00:53:33.218Z,0
2023-04-16T00:54:49.502Z,0
2023-04-16T00:56:05.790Z,0
2023-04-16T00:57:22.104Z,0
2023-04-16T00:58:38.390Z,0
2023-04-16T00:59:54.684Z,0
2023-04-16T01:01:10.980Z,0
2023-04-16T01:02:27.261Z,0
2023-04-16T01:03:43.568Z,0
2023-04-16T01:04:59.861Z,0
2023-04-16T01:06:15.000Z,0
2023-04-16T01:07:31.472Z,0
2023-04-16T01:08:47.755Z,0
2023-04-16T01:10:04.044Z,0
2023-04-16T01:11:20.347Z,0
2023-04-16T01:12:36.648Z,0
2023-04-16T01:13:52.944Z,0
2023-04-16T01:15:09.219Z,0
2023-04-16T01:17:41.824Z,0
2023-04-16T01:18:58.110Z,0
2023-04-16T01:20:14.413Z,0
2023-04-16T01:21:30.690Z,0
2023-04-16T01:22:46.990Z,0
2023-04-16T01:24:02.300Z,0
2023-04-16T01:25:18.593Z,0
2023-04-16T01:26:34.891Z,0
2023-04-16T01:27:51.185Z,0
2023-04-16T01:29:07.475Z,0
2023-04-16T01:30:23.784Z,0
2023-04-16T01:32:56.365Z,0
2023-04-16T01:34:12.657Z,0
2023-04-16T01:35:28.950Z,0
2023-04-16T01:36:45.239Z,0
2023-04-16T01:38:01.545Z,0
2023-04-16T01:39:17.824Z,0
2023-04-16T01:40:33.143Z,0
2023-04-16T01:41:49.427Z,0
2023-04-16T01:43:05.729Z,0
2023-04-16T01:44:22.018Z,0
2023-04-16T01:45:38.316Z,0
2023-04-16T01:46:54.610Z,0
2023-04-16T01:48:10.905Z,0
2023-04-16T01:49:27.203Z,0
2023-04-16T01:50:43.491Z,0
2023-04-16T01:51:59.781Z,0
2023-04-16T01:53:16.079Z,0
2023-04-16T01:54:32.364Z,0
2023-04-16T01:55:48.670Z,0
2023-04-16T01:57:03.982Z,0
2023-04-16T01:58:20.279Z,0
2023-04-16T01:59:35.578Z,0
2023-04-16T02:00:51.891Z,0
2023-04-16T02:02:08.180Z,0
2023-04-16T02:03:24.475Z,0
2023-04-16T02:04:40.766Z,0
2023-04-16T02:05:57.058Z,0
2023-04-16T02:07:13.350Z,0
2023-04-16T02:08:29.656Z,0
2023-04-16T02:09:45.930Z,0
2023-04-16T02:11:02.214Z,0
2023-04-16T02:12:18.510Z,0
2023-04-16T02:13:34.796Z,0
2023-04-16T02:14:51.096Z,0
2023-04-16T02:16:06.415Z,0
2023-04-16T02:17:22.707Z,0
2023-04-16T02:18:39.006Z,0
2023-04-16T02:19:55.282Z,0
2023-04-16T02:21:11.584Z,0
2023-04-16T02:22:27.877Z,0
2023-04-16T02:23:44.172Z,0
2023-04-16T02:25:00.457Z,0
2023-04-16T02:26:16.763Z,0
2023-04-16T02:27:33.064Z,0
2023-04-16T02:28:49.357Z,0
2023-04-16T02:30:05.648Z,0
2023-04-16T02:31:21.928Z,0
2023-04-16T02:33:53.540Z,0
2023-04-16T02:35:09.841Z,0
2023-04-16T02:36:26.139Z,0
2023-04-16T02:37:42.433Z,0
2023-04-16T02:38:58.716Z,0
2023-04-16T02:40:15.013Z,0
2023-04-16T02:41:31.315Z,0
2023-04-16T02:42:47.609Z,0
2023-04-16T02:44:03.884Z,0
2023-04-16T02:45:20.194Z,0
2023-04-16T02:46:36.480Z,0
2023-04-16T02:47:52.783Z,0
2023-04-16T02:49:08.087Z,0
2023-04-16T02:50:24.378Z,0
2023-04-16T02:51:40.668Z,0
2023-04-16T02:52:56.963Z,0
2023-04-16T02:54:13.258Z,0
2023-04-16T02:55:29.559Z,0
2023-04-16T02:56:45.848Z,0
2023-04-16T02:58:02.155Z,0
2023-04-16T02:59:18.434Z,0
2023-04-16T03:00:34.736Z,0
2023-04-16T03:01:51.032Z,0
2023-04-16T03:03:07.327Z,0
2023-04-16T03:04:23.623Z,0
2023-04-16T03:05:38.934Z,0
2023-04-16T03:06:55.224Z,0
2023-04-16T03:08:11.506Z,0
2023-04-16T03:09:27.809Z,0
2023-04-16T03:10:44.109Z,0
2023-04-16T03:12:00.384Z,0
2023-04-16T03:13:16.684Z,0
2023-04-16T03:14:32.980Z,0
2023-04-16T03:15:49.269Z,0
2023-04-16T03:17:05.566Z,0
2023-04-16T03:18:21.865Z,0
2023-04-16T03:19:38.168Z,0
2023-04-16T03:20:54.451Z,0
2023-04-16T03:22:09.763Z,0
2023-04-16T03:23:26.052Z,0
2023-04-16T03:24:42.355Z,0
2023-04-16T03:25:58.642Z,0
2023-04-16T03:27:14.936Z,0
2023-04-16T03:28:31.240Z,0
2023-04-16T03:29:47.531Z,0
2023-04-16T03:31:03.831Z,0
2023-04-16T03:32:20.132Z,0
2023-04-16T03:33:36.399Z,0
2023-04-16T03:34:52.709Z,0
2023-04-16T03:36:09.006Z,0
2023-04-16T03:37:25.299Z,0
2023-04-16T03:38:40.600Z,0
2023-04-16T03:39:56.894Z,0
2023-04-16T03:41:13.182Z,0
2023-04-16T03:42:29.475Z,0
2023-04-16T03:43:45.775Z,0
2023-04-16T03:45:02.067Z,0
2023-04-16T03:46:18.360Z,0
2023-04-16T03:47:34.600Z,1
2023-04-16T03:50:07.148Z,1
2023-04-16T03:51:23.388Z,1
2023-04-16T03:52:39.627Z,1
2023-04-16T03:53:55.867Z,2
2023-04-16T03:55:12.101Z,2
2023-04-16T03:57:44.601Z,2
2023-04-16T03:58:59.856Z,3
2023-04-16T04:00:16.095Z,5
2023-04-16T04:01:32.326Z,10
2023-04-16T04:04:04.802Z,11
2023-04-16T04:05:20.062Z,11
2023-04-16T04:06:35.319Z,17
2023-04-16T04:07:51.563Z,17
2023-04-16T04:09:07.817Z,21
2023-04-16T04:10:24.036Z,22
2023-04-16T04:11:40.293Z,28
2023-04-16T04:12:56.534Z,24
2023-04-16T04:14:12.764Z,25
2023-04-16T04:15:28.997Z,31
2023-04-16T04:16:45.256Z,38
2023-04-16T04:18:01.491Z,37
2023-04-16T04:19:16.743Z,46
2023-04-16T04:20:31.999Z,48
2023-04-16T04:21:48.241Z,51
2023-04-16T04:23:04.485Z,55
2023-04-16T04:24:20.723Z,53
2023-04-16T04:25:36.970Z,63
2023-04-16T04:26:53.209Z,70
2023-04-16T04:28:09.450Z,77
2023-04-16T04:30:41.927Z,93
2023-04-16T04:31:58.166Z,92
2023-04-16T04:33:14.407Z,99
2023-04-16T04:34:30.651Z,100
2023-04-16T04:35:46.891Z,107
2023-04-16T04:37:02.149Z,107
2023-04-16T04:38:18.374Z,114
2023-04-16T04:39:34.622Z,115
2023-04-16T04:42:07.101Z,123
2023-04-16T04:43:22.370Z,128
2023-04-16T04:44:37.626Z,129
2023-04-16T04:45:53.858Z,123
2023-04-16T04:47:10.098Z,118
2023-04-16T04:48:26.347Z,120
2023-04-16T04:49:42.579Z,133
2023-04-16T04:50:58.832Z,150
2023-04-16T04:52:15.066Z,166
2023-04-16T04:53:31.296Z,190
2023-04-16T04:54:47.540Z,223
2023-04-16T04:56:03.791Z,251
2023-04-16T04:58:35.284Z,272
2023-04-16T04:59:51.525Z,293
2023-04-16T05:01:06.790Z,318
2023-04-16T05:02:23.017Z,335
2023-04-16T05:03:39.257Z,347
2023-04-16T05:04:55.497Z,364
2023-04-16T05:06:11.733Z,382
2023-04-16T05:07:27.983Z,393
2023-04-16T05:08:44.213Z,403
2023-04-16T05:10:00.454Z,414
2023-04-16T05:11:15.000Z,435
2023-04-16T05:12:30.977Z,462
2023-04-16T05:13:47.215Z,492
2023-04-16T05:15:03.461Z,521
2023-04-16T05:16:19.691Z,535
2023-04-16T05:17:35.934Z,544
2023-04-16T05:18:52.174Z,553
2023-04-16T05:20:08.421Z,567
2023-04-16T05:21:24.661Z,586
2023-04-16T05:22:40.904Z,621
2023-04-16T05:23:57.144Z,643
2023-04-16T05:25:13.374Z,662
2023-04-16T05:26:29.614Z,680
2023-04-16T05:27:45.851Z,683
2023-04-16T05:29:02.108Z,698
2023-04-16T05:30:17.348Z,714
2023-04-16T05:31:33.603Z,725
2023-04-16T05:32:49.837Z,727
2023-04-16T05:34:06.086Z,720
2023-04-16T05:35:22.317Z,729
2023-04-16T05:36:38.561Z,767
2023-04-16T05:37:54.802Z,834
2023-04-16T05:39:11.044Z,910
2023-04-16T05:41:43.506Z,1000
2023-04-16T05:42:59.751Z,1042
2023-04-16T05:44:16.003Z,1085
2023-04-16T05:45:32.239Z,1141
2023-04-16T05:46:47.493Z,1165
2023-04-16T05:48:03.738Z,1124
2023-04-16T05:49:19.978Z,1034
2023-04-16T05:50:36.210Z,935
2023-04-16T05:51:52.459Z,848
2023-04-16T05:54:24.931Z,739
2023-04-16T05:55:41.176Z,677
2023-04-16T05:56:57.404Z,677
2023-04-16T05:58:13.641Z,658
2023-04-16T05:59:29.891Z,657
2023-04-16T06:00:46.124Z,666
2023-04-16T06:02:02.374Z,662
2023-04-16T06:03:18.608Z,656
2023-04-16T06:04:33.864Z,699
2023-04-16T06:05:50.114Z,711
2023-04-16T06:07:06.340Z,745
2023-04-16T06:08:22.593Z,763
2023-04-16T06:09:38.829Z,780
2023-04-16T06:10:55.061Z,848
2023-04-16T06:12:11.318Z,910
2023-04-16T06:13:27.544Z,1031
2023-04-16T06:14:42.802Z,1109
2023-04-16T06:15:59.052Z,1123
2023-04-16T06:17:15.297Z,1155
2023-04-16T06:18:31.534Z,1266
2023-04-16T06:19:47.761Z,1304
2023-04-16T06:22:20.253Z,1299
2023-04-16T06:23:36.499Z,1336
2023-04-16T06:24:52.729Z,1366
2023-04-16T06:26:08.984Z,1400
2023-04-16T06:27:25.214Z,1489
2023-04-16T06:28:41.449Z,1702
2023-04-16T06:29:57.689Z,1812
2023-04-16T06:31:12.945Z,1862
2023-04-16T06:32:29.194Z,2166
2023-04-16T06:33:45.417Z,2296
2023-04-16T06:35:01.671Z,2644
2023-04-16T06:36:17.903Z,2475
2023-04-16T06:37:34.145Z,2562
2023-04-16T06:38:50.381Z,2307
2023-04-16T06:40:06.620Z,2172
2023-04-16T06:41:22.872Z,2077
2023-04-16T06:42:39.112Z,1977
2023-04-16T06:43:55.338Z,1843
2023-04-16T06:45:11.576Z,2155
2023-04-16T06:46:27.820Z,1911
2023-04-16T06:47:43.084Z,1716
2023-04-16T06:48:59.322Z,1591
2023-04-16T06:50:15.552Z,1409
2023-04-16T06:51:31.798Z,1244
2023-04-16T06:52:48.038Z,1266
2023-04-16T06:54:04.283Z,1472
2023-04-16T06:55:20.515Z,2040
2023-04-16T06:56:36.765Z,2119
2023-04-16T06:57:52.995Z,2195
2023-04-16T06:59:09.245Z,2372
2023-04-16T07:00:25.471Z,2474
2023-04-16T07:01:41.732Z,2449
2023-04-16T07:02:57.958Z,2786
2023-04-16T07:04:13.210Z,2638
2023-04-16T07:05:29.464Z,2451
2023-04-16T07:08:01.926Z,2586
2023-04-16T07:09:18.181Z,2594
2023-04-16T07:10:34.409Z,2393
2023-04-16T07:11:50.657Z,2463
2023-04-16T07:13:06.892Z,2430
2023-04-16T07:14:23.141Z,2887
2023-04-16T07:15:39.381Z,3162
2023-04-16T07:16:55.610Z,3285
2023-04-16T07:18:11.860Z,3450
2023-04-16T07:19:28.092Z,3757
2023-04-16T07:20:43.361Z,3990
2023-04-16T07:23:15.836Z,4171
2023-04-16T07:24:32.067Z,4029
2023-04-16T07:25:48.313Z,3770
2023-04-16T07:27:04.554Z,3757
2023-04-16T07:28:20.789Z,3485
2023-04-16T07:29:37.027Z,3311
2023-04-16T07:30:53.280Z,3146
2023-04-16T07:32:09.521Z,3047
2023-04-16T07:33:25.757Z,3035
2023-04-16T07:34:41.991Z,2905
2023-04-16T07:35:58.226Z,2809
2023-04-16T07:38:29.729Z,2528
2023-04-16T07:39:45.963Z,2302
2023-04-16T07:41:02.212Z,2103
2023-04-16T07:42:18.438Z,1965
2023-04-16T07:43:34.691Z,1871
2023-04-16T07:44:50.934Z,2008
2023-04-16T07:46:07.161Z,2095
2023-04-16T07:47:23.402Z,2126
2023-04-16T07:48:39.655Z,2121
2023-04-16T07:49:55.895Z,2009
2023-04-16T07:51:12.122Z,2121
2023-04-16T07:52:28.371Z,2218
2023-04-16T07:53:43.625Z,2334
2023-04-16T07:54:59.866Z,2363
2023-04-16T07:56:16.093Z,2488
2023-04-16T07:57:32.333Z,2658
2023-04-16T07:58:48.575Z,2916
2023-04-16T08:00:04.814Z,3397
2023-04-16T08:01:21.068Z,3600
2023-04-16T08:02:37.295Z,3670
2023-04-16T08:03:53.539Z,3936
2023-04-16T08:05:09.779Z,4102
2023-04-16T08:06:26.022Z,4155
2023-04-16T08:07:42.254Z,4124
2023-04-16T08:08:58.514Z,4187
2023-04-16T08:10:13.751Z,4094
2023-04-16T08:11:30.008Z,3910
2023-04-16T08:12:46.241Z,3842
2023-04-16T08:14:02.473Z,3864
2023-04-16T08:15:18.716Z,3854
2023-04-16T08:16:34.968Z,3970
2023-04-16T08:17:51.192Z,3989
2023-04-16T08:19:07.445Z,4356
2023-04-16T08:20:23.683Z,4832
2023-04-16T08:21:39.916Z,5241
2023-04-16T08:24:12.391Z,4580
2023-04-16T08:25:28.645Z,4655
2023-04-16T08:26:43.900Z,4876
2023-04-16T08:28:00.144Z,5301
2023-04-16T08:29:16.379Z,5841
2023-04-16T08:30:32.624Z,6125
2023-04-16T08:31:48.851Z,6255
2023-04-16T08:33:05.091Z,6359
2023-04-16T08:34:21.344Z,6740
2023-04-16T08:35:37.573Z,7196
2023-04-16T08:38:10.053Z,8264
2023-04-16T08:39:26.301Z,8672
2023-04-16T08:40:42.525Z,8917
2023-04-16T08:41:58.777Z,9065
2023-04-16T08:43:14.031Z,9009
2023-04-16T08:44:30.274Z,8793
2023-04-16T08:47:02.741Z,8356
2023-04-16T08:48:18.013Z,8270
2023-04-16T08:49:33.267Z,8112
2023-04-16T08:50:49.499Z,7863
2023-04-16T08:52:05.754Z,7492
2023-04-16T08:53:21.990Z,7347
2023-04-16T08:54:38.224Z,7390
2023-04-16T08:55:54.459Z,6480
2023-04-16T08:57:10.713Z,6763
2023-04-16T08:58:26.953Z,7124
2023-04-16T08:59:43.192Z,7055
2023-04-16T09:00:59.421Z,7157
2023-04-16T09:03:30.921Z,5870
2023-04-16T09:04:46.180Z,5507
2023-04-16T09:06:02.432Z,5690
2023-04-16T09:07:18.668Z,5675
2023-04-16T09:09:51.136Z,4798
2023-04-16T09:11:06.407Z,4274
2023-04-16T09:12:21.670Z,3811
2023-04-16T09:13:37.904Z,3977
2023-04-16T09:14:54.133Z,4075
2023-04-16T09:17:26.622Z,4506
2023-04-16T09:18:42.865Z,4774
2023-04-16T09:19:59.106Z,4361
2023-04-16T09:21:15.335Z,3995
2023-04-16T09:22:31.578Z,4348
2023-04-16T09:23:47.822Z,5063
2023-04-16T09:25:04.067Z,5702
2023-04-16T09:27:36.534Z,6179
2023-04-16T09:28:51.795Z,6165
2023-04-16T09:31:24.266Z,6005
2023-04-16T09:32:40.514Z,5884
2023-04-16T09:33:56.748Z,5807
2023-04-16T09:35:13.005Z,5531
2023-04-16T09:36:29.236Z,5343
2023-04-16T09:37:45.481Z,5425
2023-04-16T09:39:01.719Z,5344
2023-04-16T09:40:17.952Z,5473
2023-04-16T09:41:34.186Z,5178
2023-04-16T09:42:50.429Z,5172
2023-04-16T09:44:06.674Z,5145
2023-04-16T09:45:23.029Z,4856
2023-04-16T09:46:39.279Z,5523
2023-04-16T09:47:55.518Z,5952
2023-04-16T09:49:11.752Z,5970
2023-04-16T09:50:27.997Z,5875
2023-04-16T09:51:44.232Z,5804
2023-04-16T09:53:00.468Z,5687
2023-04-16T09:54:15.735Z,5748
2023-04-16T09:55:30.995Z,5667
2023-04-16T09:56:47.236Z,5906
2023-04-16T09:58:03.477Z,6081
2023-04-16T10:00:35.947Z,6456
2023-04-16T10:01:52.192Z,6828
2023-04-16T10:03:08.433Z,6952
2023-04-16T10:04:24.665Z,6612
2023-04-16T10:05:40.916Z,6482
2023-04-16T10:06:57.159Z,6541
2023-04-16T10:08:13.401Z,6686
2023-04-16T10:10:45.871Z,6725
2023-04-16T10:12:01.129Z,6539
2023-04-16T10:13:16.385Z,6387
2023-04-16T10:14:32.621Z,6458
2023-04-16T10:15:48.874Z,6534
2023-04-16T10:17:05.101Z,6284
2023-04-16T10:18:21.339Z,6086
2023-04-16T10:19:37.597Z,6222
2023-04-16T10:20:53.820Z,6405
2023-04-16T10:22:10.064Z,6460
2023-04-16T10:23:26.303Z,6519
2023-04-16T10:24:42.554Z,6430
2023-04-16T10:25:57.815Z,6234
2023-04-16T10:27:13.062Z,6112
2023-04-16T10:28:29.299Z,6196
2023-04-16T10:29:44.557Z,6518
2023-04-16T10:31:00.813Z,7088
2023-04-16T10:33:33.298Z,7195
2023-04-16T10:34:49.520Z,7362
2023-04-16T10:36:05.765Z,7138
2023-04-16T10:37:22.005Z,7048
2023-04-16T10:38:38.256Z,6793
2023-04-16T10:39:54.494Z,6803
2023-04-16T10:41:10.731Z,6456
2023-04-16T10:42:26.969Z,5967
2023-04-16T10:43:43.205Z,5303
2023-04-16T10:44:59.435Z,5403
2023-04-16T10:46:15.816Z,5494
2023-04-16T10:47:32.042Z,5381
2023-04-16T10:48:48.291Z,4754
2023-04-16T10:50:04.530Z,4963
2023-04-16T10:51:20.762Z,5310
2023-04-16T10:52:37.000Z,5500
2023-04-16T10:53:53.380Z,5749
2023-04-16T10:55:08.639Z,5891
2023-04-16T10:56:24.882Z,5893
2023-04-16T10:57:41.115Z,5717
2023-04-16T10:58:57.356Z,5622
2023-04-16T11:00:13.607Z,5942
2023-04-16T11:01:29.849Z,5063
2023-04-16T11:02:46.084Z,5272
2023-04-16T11:04:02.321Z,6651
2023-04-16T11:05:18.563Z,7015
2023-04-16T11:06:34.798Z,7408
2023-04-16T11:07:51.035Z,5468
2023-04-16T11:09:07.283Z,5143
2023-04-16T11:10:23.518Z,5010
2023-04-16T11:11:38.768Z,4446
2023-04-16T11:12:55.029Z,4316
2023-04-16T11:14:11.268Z,5429
2023-04-16T11:15:27.490Z,4895
2023-04-16T11:16:43.731Z,4869
2023-04-16T11:19:16.217Z,3532
2023-04-16T11:20:32.451Z,2342
2023-04-16T11:21:48.688Z,2731
2023-04-16T11:23:04.947Z,4291
2023-04-16T11:24:21.169Z,4429
2023-04-16T11:26:53.654Z,4531
2023-04-16T11:28:09.897Z,5426
2023-04-16T11:29:25.163Z,4126
2023-04-16T11:30:41.387Z,4140
2023-04-16T11:31:57.628Z,5026
2023-04-16T11:33:13.869Z,4473
2023-04-16T11:34:30.122Z,3898
2023-04-16T11:35:46.363Z,4247
2023-04-16T11:37:02.597Z,4052
2023-04-16T11:38:18.841Z,3426
2023-04-16T11:39:35.071Z,3578
2023-04-16T11:40:51.317Z,2874
2023-04-16T11:42:07.553Z,1767
2023-04-16T11:43:23.802Z,2128
2023-04-16T11:44:40.033Z,2243
2023-04-16T11:45:55.299Z,2505
2023-04-16T11:47:11.534Z,3111
2023-04-16T11:48:27.776Z,2950
2023-04-16T11:49:44.012Z,2764
2023-04-16T11:51:00.241Z,2577
2023-04-16T11:52:16.496Z,2697
2023-04-16T11:53:32.735Z,2428
2023-04-16T11:54:48.960Z,3091
2023-04-16T11:57:21.442Z,2395
2023-04-16T11:58:37.689Z,2252
2023-04-16T11:59:53.920Z,2148
2023-04-16T12:01:10.175Z,1279
2023-04-16T12:02:26.415Z,1358
2023-04-16T12:03:41.671Z,2315
2023-04-16T12:04:57.897Z,2515
2023-04-16T12:06:14.143Z,3514
2023-04-16T12:07:30.376Z,2834
2023-04-16T12:08:46.620Z,2456
2023-04-16T12:10:02.865Z,2045
2023-04-16T12:12:35.347Z,1648
2023-04-16T12:13:51.592Z,2020
2023-04-16T12:15:07.824Z,2663
2023-04-16T12:16:24.072Z,2137
2023-04-16T12:17:40.303Z,1521
2023-04-16T12:18:56.543Z,3934
2023-04-16T12:20:11.810Z,3052
2023-04-16T12:21:28.051Z,2645
2023-04-16T12:22:44.275Z,2374
2023-04-16T12:24:00.526Z,1571
2023-04-16T12:25:16.753Z,1616
2023-04-16T12:26:32.993Z,1092
2023-04-16T12:27:49.240Z,1344
2023-04-16T12:29:05.471Z,2510
2023-04-16T12:30:21.711Z,2321
2023-04-16T12:31:37.970Z,1437
2023-04-16T12:32:54.199Z,1666
2023-04-16T12:34:10.443Z,1304
2023-04-16T12:35:26.690Z,983
2023-04-16T12:36:42.921Z,1170
2023-04-16T12:37:59.286Z,1045
2023-04-16T12:39:15.516Z,904
2023-04-16T12:40:31.756Z,1108
2023-04-16T12:41:48.004Z,1261
2023-04-16T12:43:04.247Z,1452
2023-04-16T12:44:20.487Z,2282
2023-04-16T12:45:36.730Z,3323
2023-04-16T12:46:52.973Z,3335
2023-04-16T12:48:09.211Z,3380
2023-04-16T12:50:41.672Z,4138
2023-04-16T12:51:57.924Z,4039
2023-04-16T12:53:14.156Z,4084
2023-04-16T12:54:29.414Z,4273
2023-04-16T12:55:45.665Z,4388
2023-04-16T12:57:01.888Z,4890
2023-04-16T12:58:18.146Z,4805
2023-04-16T12:59:34.374Z,4187
2023-04-16T13:00:50.625Z,3362
2023-04-16T13:02:06.862Z,2605
2023-04-16T13:03:23.105Z,1649
2023-04-16T13:04:39.350Z,1528
2023-04-16T13:05:55.575Z,1514
2023-04-16T13:07:11.826Z,1752
2023-04-16T13:08:28.064Z,2121
2023-04-16T13:09:44.296Z,2492
2023-04-16T13:11:00.541Z,2240
2023-04-16T13:12:16.784Z,2021
2023-04-16T13:13:32.027Z,1963
2023-04-16T13:14:48.284Z,2715
2023-04-16T13:16:04.526Z,1954
2023-04-16T13:17:20.760Z,3090
2023-04-16T13:18:36.987Z,3260
2023-04-16T13:19:53.228Z,3256
2023-04-16T13:21:09.481Z,3114
2023-04-16T13:22:25.714Z,3237
2023-04-16T13:23:41.948Z,2210
2023-04-16T13:24:58.187Z,2283
2023-04-16T13:26:14.433Z,1576
2023-04-16T13:27:30.674Z,2243
2023-04-16T13:28:46.921Z,2439
2023-04-16T13:30:02.164Z,2174
2023-04-16T13:31:18.408Z,1787
2023-04-16T13:32:34.660Z,1586
2023-04-16T13:33:50.895Z,1310
2023-04-16T13:35:07.140Z,2091
2023-04-16T13:36:23.366Z,1478
2023-04-16T13:38:55.861Z,2146
2023-04-16T13:40:12.086Z,3363
2023-04-16T13:41:28.340Z,3048
2023-04-16T13:44:00.806Z,3381
2023-04-16T13:45:17.047Z,3001
2023-04-16T13:46:33.411Z,1896
2023-04-16T13:47:49.665Z,2278
2023-04-16T13:49:05.900Z,2266
2023-04-16T13:50:22.137Z,2854
2023-04-16T13:51:38.381Z,3145
2023-04-16T13:52:54.607Z,3498
2023-04-16T13:54:10.850Z,3361
2023-04-16T13:55:27.098Z,2753
2023-04-16T13:56:43.332Z,2716
2023-04-16T13:57:59.571Z,2636
2023-04-16T13:59:15.813Z,2528
2023-04-16T14:00:32.052Z,2887
2023-04-16T14:01:48.286Z,2544
2023-04-16T14:03:03.551Z,2673
2023-04-16T14:04:19.787Z,2647
2023-04-16T14:05:36.029Z,3404
2023-04-16T14:08:08.506Z,2322
2023-04-16T14:09:24.742Z,2005
2023-04-16T14:10:40.999Z,1608
2023-04-16T14:11:57.238Z,1944
2023-04-16T14:13:13.470Z,2444
2023-04-16T14:14:29.711Z,2253
2023-04-16T14:15:45.950Z,2173
2023-04-16T14:17:02.197Z,2576
2023-04-16T14:18:18.434Z,2641
2023-04-16T14:19:34.661Z,2313
2023-04-16T14:22:06.164Z,2139
2023-04-16T14:23:22.397Z,2546
2023-04-16T14:24:38.653Z,2276
2023-04-16T14:25:54.892Z,2605
2023-04-16T14:27:11.131Z,3007
2023-04-16T14:29:43.597Z,2269
2023-04-16T14:30:59.844Z,2243
2023-04-16T14:32:15.103Z,2242
2023-04-16T14:33:30.358Z,2397
2023-04-16T14:34:46.601Z,2339
2023-04-16T14:36:02.842Z,2429
2023-04-16T14:37:19.091Z,2609
2023-04-16T14:38:35.325Z,2554
2023-04-16T14:39:51.568Z,2440
2023-04-16T14:41:07.806Z,1956
2023-04-16T14:42:24.043Z,1311
2023-04-16T14:43:40.280Z,1051
2023-04-16T14:44:55.550Z,1074
2023-04-16T14:46:10.812Z,1088
2023-04-16T14:47:26.055Z,1258
2023-04-16T14:49:58.550Z,1570
2023-04-16T14:51:14.777Z,1737
2023-04-16T14:53:47.261Z,1957
2023-04-16T14:55:03.511Z,1994
2023-04-16T14:56:19.756Z,2125
2023-04-16T14:57:35.984Z,2265
2023-04-16T14:58:52.221Z,2296
2023-04-16T15:00:08.457Z,2358
2023-04-16T15:01:24.707Z,2237
2023-04-16T15:02:39.975Z,2368
2023-04-16T15:03:55.232Z,2295
2023-04-16T15:05:11.462Z,2263
2023-04-16T15:07:43.938Z,2141
2023-04-16T15:09:00.180Z,2060
2023-04-16T15:10:16.422Z,1491
2023-04-16T15:11:32.666Z,1590
2023-04-16T15:12:48.901Z,1136
2023-04-16T15:14:05.145Z,806
2023-04-16T15:15:21.377Z,825
2023-04-16T15:16:37.625Z,998
2023-04-16T15:17:53.858Z,788
2023-04-16T15:19:10.109Z,227
2023-04-16T15:20:26.355Z,323
2023-04-16T15:21:42.582Z,1358
2023-04-16T15:22:58.815Z,1621
2023-04-16T15:24:14.086Z,1501
2023-04-16T15:25:30.311Z,1423
2023-04-16T15:28:02.798Z,1372
2023-04-16T15:29:19.033Z,1654
2023-04-16T15:30:35.287Z,1665
2023-04-16T15:31:51.510Z,1606
2023-04-16T15:33:07.765Z,1763
2023-04-16T15:34:24.139Z,1807
2023-04-16T15:35:40.394Z,1472
2023-04-16T15:36:55.647Z,1083
2023-04-16T15:38:11.880Z,1068
2023-04-16T15:39:28.124Z,984
2023-04-16T15:40:44.367Z,1012
2023-04-16T15:43:16.847Z,874
2023-04-16T15:44:33.070Z,1007
2023-04-16T15:45:49.323Z,1169
2023-04-16T15:47:05.565Z,1321
2023-04-16T15:48:21.809Z,1220
2023-04-16T15:49:38.045Z,1145
2023-04-16T15:50:54.279Z,1005
2023-04-16T15:52:10.512Z,1110
2023-04-16T15:53:26.880Z,1021
2023-04-16T15:54:43.122Z,1064
2023-04-16T15:55:59.368Z,1112
2023-04-16T15:57:15.596Z,1123
2023-04-16T15:58:31.840Z,1044
2023-04-16T16:01:04.328Z,1211
2023-04-16T16:02:20.565Z,1299
2023-04-16T16:03:36.795Z,1307
2023-04-16T16:04:53.031Z,1418
2023-04-16T16:06:09.272Z,1373
2023-04-16T16:07:25.520Z,1319
2023-04-16T16:08:41.769Z,1486
2023-04-16T16:09:57.019Z,1499
2023-04-16T16:11:13.248Z,1595
2023-04-16T16:12:29.508Z,1481
2023-04-16T16:13:45.727Z,1634
2023-04-16T16:15:01.976Z,1322
2023-04-16T16:16:18.217Z,893
2023-04-16T16:17:34.466Z,889
2023-04-16T16:18:50.701Z,852
2023-04-16T16:20:06.943Z,791
2023-04-16T16:21:23.183Z,547
2023-04-16T16:22:39.421Z,451
2023-04-16T16:23:55.648Z,517
2023-04-16T16:25:11.903Z,479
2023-04-16T16:26:27.156Z,540
2023-04-16T16:27:43.394Z,528
2023-04-16T16:28:59.637Z,456
2023-04-16T16:30:15.883Z,372
2023-04-16T16:31:32.109Z,285
2023-04-16T16:32:48.363Z,463
2023-04-16T16:34:04.591Z,442
2023-04-16T16:35:20.827Z,345
2023-04-16T16:36:37.076Z,466
2023-04-16T16:37:53.309Z,442
2023-04-16T16:39:09.559Z,400
2023-04-16T16:40:25.802Z,548
2023-04-16T16:41:42.031Z,586
2023-04-16T16:42:57.302Z,594
2023-04-16T16:44:13.536Z,596
2023-04-16T16:45:29.767Z,674
2023-04-16T16:46:46.005Z,777
2023-04-16T16:48:02.242Z,776
2023-04-16T16:49:18.492Z,839
2023-04-16T16:50:34.727Z,801
2023-04-16T16:51:50.981Z,866
2023-04-16T16:53:07.220Z,889
2023-04-16T16:54:23.458Z,940
2023-04-16T16:55:39.689Z,950
2023-04-16T16:56:55.936Z,937
2023-04-16T16:58:12.167Z,852
2023-04-16T16:59:27.425Z,803
2023-04-16T17:00:43.673Z,796
2023-04-16T17:01:59.900Z,761
2023-04-16T17:03:16.155Z,725
2023-04-16T17:04:32.387Z,637
2023-04-16T17:05:48.618Z,517
2023-04-16T17:07:04.868Z,448
2023-04-16T17:08:21.102Z,413
2023-04-16T17:09:37.359Z,419
2023-04-16T17:10:53.593Z,445
2023-04-16T17:12:09.836Z,403
2023-04-16T17:13:26.077Z,320
2023-04-16T17:14:42.317Z,310
2023-04-16T17:15:57.557Z,335
2023-04-16T17:17:13.814Z,305
2023-04-16T17:18:30.054Z,246
2023-04-16T17:19:46.280Z,176
2023-04-16T17:21:02.531Z,65
2023-04-16T17:22:18.769Z,255
2023-04-16T17:23:35.007Z,287
2023-04-16T17:24:51.250Z,247
2023-04-16T17:26:07.492Z,326
2023-04-16T17:27:23.732Z,203
2023-04-16T17:28:39.969Z,109
2023-04-16T17:29:56.202Z,104
2023-04-16T17:31:12.440Z,91
2023-04-16T17:32:28.685Z,134
2023-04-16T17:33:43.951Z,327
2023-04-16T17:35:00.177Z,181
2023-04-16T17:36:16.413Z,220
2023-04-16T17:37:32.667Z,180
2023-04-16T17:38:48.911Z,177
2023-04-16T17:40:05.140Z,187
2023-04-16T17:41:21.379Z,198
2023-04-16T17:42:37.615Z,216
2023-04-16T17:43:53.861Z,332
2023-04-16T17:45:10.096Z,171
2023-04-16T17:46:26.337Z,230
2023-04-16T17:47:42.594Z,265
2023-04-16T17:48:58.825Z,187
2023-04-16T17:50:14.082Z,190
2023-04-16T17:51:30.319Z,149
2023-04-16T17:52:46.552Z,249
2023-04-16T17:55:19.040Z,145
2023-04-16T17:56:35.272Z,141
2023-04-16T17:57:51.519Z,132
2023-04-16T17:59:07.755Z,106
2023-04-16T18:00:23.992Z,76
2023-04-16T18:01:40.234Z,56
2023-04-16T18:02:56.487Z,26
2023-04-16T18:04:12.731Z,30
2023-04-16T18:05:28.962Z,34
2023-04-16T18:06:44.224Z,48
2023-04-16T18:08:00.461Z,36
2023-04-16T18:09:16.691Z,28
2023-04-16T18:10:32.940Z,25
2023-04-16T18:11:49.168Z,20
2023-04-16T18:13:05.409Z,16
2023-04-16T18:14:21.653Z,16
2023-04-16T18:15:37.890Z,7
2023-04-16T18:16:54.142Z,10
2023-04-16T18:18:10.378Z,8
2023-04-16T18:19:26.612Z,9
2023-04-16T18:20:42.854Z,5
2023-04-16T18:21:59.095Z,4
2023-04-16T18:23:14.349Z,4